createdAt,value
2023-01-25T00:00:04.446Z,8.07
2023-01-25T00:03:05.917Z,6.88
2023-01-25T00:06:09.859Z,7.73
2023-01-25T00:09:11.947Z,7.30
2023-01-25T00:12:14.568Z,7.65
2023-01-25T00:15:15.943Z,7.72
2023-01-25T00:18:18.483Z,7.30
2023-01-25T00:21:21.589Z,7.57
2023-01-25T00:24:26.291Z,6.60
2023-01-25T00:27:29.282Z,7.40
2023-01-25T00:30:30.612Z,7.20
2023-01-25T00:33:45.283Z,7.60
2023-01-25T00:36:49.416Z,7.23
2023-01-25T00:39:53.181Z,7.07
2023-01-25T00:42:56.287Z,6.88
2023-01-25T00:46:00.754Z,7.15
2023-01-25T00:49:03.423Z,7.03
2023-01-25T00:52:05.811Z,7.70
2023-01-25T00:55:11.113Z,7.37
2023-01-25T00:58:12.427Z,8.13
2023-01-25T01:01:15.101Z,7.75
2023-01-25T01:07:39.043Z,8.33
2023-01-25T01:10:41.519Z,8.23
2023-01-25T01:17:04.784Z,7.78
2023-01-25T01:20:07.956Z,8.20
2023-01-25T01:23:09.288Z,8.40
2023-01-25T01:26:15.276Z,7.33
2023-01-25T01:29:17.975Z,8.30
2023-01-25T01:32:19.419Z,8.30
2023-01-25T01:35:22.109Z,7.53
2023-01-25T01:38:23.831Z,8.23
2023-01-25T01:41:27.339Z,8.17
2023-01-25T01:44:46.505Z,7.03
2023-01-25T01:47:48.036Z,7.82
2023-01-25T01:50:57.600Z,8.10
2023-01-25T01:54:03.640Z,7.83
2023-01-25T01:57:09.933Z,7.60
2023-01-25T02:00:15.206Z,8.20
2023-01-25T02:03:18.025Z,7.60
2023-01-25T02:06:26.121Z,8.13
2023-01-25T02:09:33.045Z,8.33
2023-01-25T02:12:37.652Z,7.77
2023-01-25T02:15:45.679Z,8.45
2023-01-25T02:18:46.994Z,7.72
2023-01-25T02:21:51.580Z,7.65
2023-01-25T02:25:02.368Z,8.17
2023-01-25T02:28:10.163Z,7.53
2023-01-25T02:31:11.866Z,8.82
2023-01-25T02:34:14.525Z,8.05
2023-01-25T02:37:17.260Z,7.43
2023-01-25T02:43:42.234Z,8.07
2023-01-25T02:46:45.791Z,7.85
2023-01-25T02:49:47.140Z,7.60
2023-01-25T02:52:49.697Z,7.80
2023-01-25T02:55:51.808Z,7.90
2023-01-25T02:58:54.794Z,7.77
2023-01-25T03:01:56.150Z,8.40
2023-01-25T03:04:58.777Z,8.10
2023-01-25T03:08:00.175Z,7.78
2023-01-25T03:11:05.357Z,7.80
2023-01-25T03:14:08.011Z,7.97
2023-01-25T03:17:09.387Z,7.88
2023-01-25T03:20:13.062Z,8.38
2023-01-25T03:23:15.718Z,8.45
2023-01-25T03:26:19.865Z,8.00
2023-01-25T03:29:22.496Z,7.93
2023-01-25T03:32:23.864Z,8.18
2023-01-25T03:35:26.602Z,8.05
2023-01-25T03:38:28.125Z,8.20
2023-01-25T03:41:30.104Z,8.73
2023-01-25T03:44:32.765Z,7.67
2023-01-25T03:47:34.050Z,7.97
2023-01-25T03:50:36.616Z,7.80
2023-01-25T03:53:37.918Z,7.68
2023-01-25T03:56:41.386Z,8.00
2023-01-25T03:59:42.701Z,7.80
2023-01-25T04:02:45.275Z,6.80
2023-01-25T04:05:46.778Z,7.35
2023-01-25T04:08:48.137Z,8.00
2023-01-25T04:11:50.385Z,8.20
2023-01-25T04:14:51.724Z,7.67
2023-01-25T04:17:52.997Z,7.75
2023-01-25T04:20:55.067Z,7.93
2023-01-25T04:23:56.415Z,8.15
2023-01-25T04:26:59.646Z,7.73
2023-01-25T04:30:00.911Z,7.97
2023-01-25T04:33:04.152Z,7.32
2023-01-25T04:36:07.174Z,8.18
2023-01-25T04:39:08.468Z,8.05
2023-01-25T04:42:11.966Z,7.83
2023-01-25T04:45:13.430Z,7.47
2023-01-25T04:48:16.256Z,8.07
2023-01-25T04:51:17.541Z,7.75
2023-01-25T04:54:20.040Z,7.60
2023-01-25T04:57:22.286Z,7.77
2023-01-25T05:00:23.776Z,7.60
2023-01-25T05:03:26.789Z,7.65
2023-01-25T05:06:30.276Z,8.63
2023-01-25T05:09:31.596Z,8.35
2023-01-25T05:12:34.971Z,8.37
2023-01-25T05:15:37.326Z,7.67
2023-01-25T05:18:48.303Z,8.27
2023-01-25T05:22:00.268Z,8.20
2023-01-25T05:25:04.014Z,7.78
2023-01-25T05:28:06.326Z,7.20
2023-01-25T05:34:28.823Z,7.72
2023-01-25T05:37:31.369Z,8.18
2023-01-25T05:40:32.845Z,8.13
2023-01-25T05:43:36.048Z,7.50
2023-01-25T05:46:37.371Z,7.07
2023-01-25T05:49:38.705Z,7.35
2023-01-25T05:52:40.229Z,7.70
2023-01-25T05:59:04.598Z,7.70
2023-01-25T06:02:06.183Z,7.00
2023-01-25T06:05:10.112Z,7.22
2023-01-25T06:08:11.764Z,6.93
2023-01-25T06:14:36.557Z,7.23
2023-01-25T06:17:37.833Z,7.17
2023-01-25T06:20:40.386Z,8.45
2023-01-25T06:23:43.632Z,7.20
2023-01-25T06:26:46.318Z,7.22
2023-01-25T06:29:48.417Z,7.50
2023-01-25T06:32:51.121Z,7.23
2023-01-25T06:35:53.720Z,6.60
2023-01-25T06:38:56.756Z,6.50
2023-01-25T06:41:58.025Z,6.78
2023-01-25T06:45:01.307Z,6.90
2023-01-25T06:48:02.770Z,7.23
2023-01-25T06:51:09.971Z,7.18
2023-01-25T06:54:11.290Z,6.80
2023-01-25T06:57:12.633Z,6.82
2023-01-25T07:00:16.116Z,7.03
2023-01-25T07:03:17.607Z,7.10
2023-01-25T07:06:19.444Z,7.05
2023-01-25T07:09:23.564Z,6.97
2023-01-25T07:12:27.821Z,7.65
2023-01-25T07:15:29.774Z,7.03
2023-01-25T07:18:33.629Z,6.70
2023-01-25T07:21:34.985Z,7.15
2023-01-25T07:24:37.602Z,6.90
2023-01-25T07:27:38.928Z,7.60
2023-01-25T07:30:41.493Z,7.47
2023-01-25T07:33:49.142Z,6.10
2023-01-25T07:36:51.743Z,7.22
2023-01-25T07:39:54.319Z,6.40
2023-01-25T07:42:55.733Z,6.78
2023-01-25T07:46:05.042Z,6.93
2023-01-25T07:49:07.752Z,6.20
2023-01-25T07:52:09.224Z,6.43
2023-01-25T07:55:12.117Z,6.60
2023-01-25T07:58:14.128Z,6.63
2023-01-25T08:01:18.882Z,6.40
2023-01-25T08:04:20.242Z,6.93
2023-01-25T08:07:23.987Z,6.63
2023-01-25T08:10:25.408Z,6.95
2023-01-25T08:13:28.034Z,7.28
2023-01-25T08:16:33.675Z,7.20
2023-01-25T08:19:35.063Z,7.10
2023-01-25T08:22:36.347Z,6.75
2023-01-25T08:25:39.991Z,6.38
2023-01-25T08:28:42.654Z,6.05
2023-01-25T08:31:44.687Z,6.93
2023-01-25T08:34:46.242Z,6.80
2023-01-25T08:37:47.542Z,7.20
2023-01-25T08:40:50.158Z,7.63
2023-01-25T08:43:52.483Z,6.68
2023-01-25T08:46:54.522Z,6.70
2023-01-25T08:49:55.922Z,5.97
2023-01-25T08:52:57.234Z,6.10
2023-01-25T08:56:03.304Z,7.00
2023-01-25T08:59:06.700Z,6.70
2023-01-25T09:02:11.428Z,6.30
2023-01-25T09:05:14.063Z,7.03
2023-01-25T09:08:16.640Z,6.85
2023-01-25T09:11:20.115Z,6.70
2023-01-25T09:14:21.639Z,6.68
2023-01-25T09:17:24.888Z,6.17
2023-01-25T09:20:26.289Z,7.20
2023-01-25T09:23:27.904Z,7.45
2023-01-25T09:26:30.746Z,7.15
2023-01-25T09:29:32.762Z,6.82
2023-01-25T09:32:35.012Z,8.23
2023-01-25T09:35:36.574Z,6.40
2023-01-25T09:38:39.872Z,7.75
2023-01-25T09:45:48.568Z,7.80
2023-01-25T09:49:07.598Z,7.47
2023-01-25T09:55:54.490Z,7.65
2023-01-25T09:59:01.237Z,7.60
2023-01-25T10:02:14.087Z,6.97
2023-01-25T10:05:21.128Z,8.07
2023-01-25T10:08:31.551Z,7.47
2023-01-25T10:11:33.478Z,7.65
2023-01-25T10:14:36.232Z,7.88
2023-01-25T10:17:40.168Z,7.15
2023-01-25T10:20:48.203Z,7.90
2023-01-25T10:24:08.878Z,7.17
2023-01-25T10:27:23.460Z,8.02
2023-01-25T10:30:27.865Z,7.20
2023-01-25T10:33:34.270Z,7.53
2023-01-25T10:36:37.141Z,8.00
2023-01-25T10:39:45.037Z,8.90
2023-01-25T10:42:53.697Z,8.18
2023-01-25T10:45:56.629Z,8.75
2023-01-25T10:49:02.526Z,8.60
2023-01-25T10:52:17.572Z,8.17
2023-01-25T10:55:22.395Z,7.40
2023-01-25T10:58:33.790Z,8.00
2023-01-25T11:01:36.695Z,8.18
2023-01-25T11:04:40.462Z,8.15
2023-01-25T11:07:42.529Z,9.73
2023-01-25T11:10:45.800Z,8.23
2023-01-25T11:13:47.321Z,9.20
2023-01-25T11:16:49.179Z,10.68
2023-01-25T11:20:08.115Z,9.38
2023-01-25T11:23:22.511Z,9.13
2023-01-25T11:26:25.393Z,8.97
2023-01-25T11:29:26.867Z,9.63
2023-01-25T11:32:29.461Z,7.85
2023-01-25T11:35:35.255Z,9.68
2023-01-25T11:38:39.788Z,8.33
2023-01-25T11:42:04.220Z,8.90
2023-01-25T11:45:33.356Z,9.20
2023-01-25T11:49:01.030Z,8.75
2023-01-25T11:52:13.980Z,8.98
2023-01-25T11:55:24.772Z,10.33
2023-01-25T11:58:42.908Z,9.40
2023-01-25T12:02:05.185Z,8.25
2023-01-25T12:05:23.151Z,8.20
2023-01-25T12:08:42.489Z,10.23
2023-01-25T12:11:59.547Z,9.40
2023-01-25T12:15:13.928Z,9.27
2023-01-25T12:18:36.492Z,8.80
2023-01-25T12:21:54.879Z,9.32
2023-01-25T12:25:02.931Z,8.68
2023-01-25T12:28:14.100Z,8.73
2023-01-25T12:31:22.988Z,9.43
2023-01-25T12:34:34.132Z,8.63
2023-01-25T12:37:40.996Z,8.88
2023-01-25T12:40:50.783Z,8.50
2023-01-25T12:43:55.906Z,8.10
2023-01-25T12:47:05.253Z,8.43
2023-01-25T12:50:17.882Z,9.13
2023-01-25T12:53:21.539Z,8.38
2023-01-25T12:56:33.929Z,8.07
2023-01-25T12:59:44.422Z,8.10
2023-01-25T13:02:59.900Z,8.43
2023-01-25T13:06:10.689Z,8.95
2023-01-25T13:12:53.976Z,8.20
2023-01-25T13:15:57.351Z,9.53
2023-01-25T13:18:59.191Z,9.23
2023-01-25T13:22:01.739Z,8.38
2023-01-25T13:25:09.789Z,8.52
2023-01-25T13:28:43.828Z,8.48
2023-01-25T13:31:51.929Z,8.53
2023-01-25T13:34:59.459Z,8.13
2023-01-25T13:38:20.774Z,8.05
2023-01-25T13:41:23.483Z,7.90
2023-01-25T13:44:27.763Z,7.53
2023-01-25T13:47:35.153Z,8.50
2023-01-25T13:50:43.908Z,8.70
2023-01-25T13:53:56.889Z,9.57
2023-01-25T13:57:05.103Z,9.00
2023-01-25T14:00:15.545Z,9.52
2023-01-25T14:03:19.419Z,8.80
2023-01-25T14:06:25.922Z,8.53
2023-01-25T14:09:29.074Z,7.30
2023-01-25T14:12:36.990Z,8.40
2023-01-25T14:15:38.349Z,8.93
2023-01-25T14:18:42.370Z,7.60
2023-01-25T14:21:43.753Z,7.77
2023-01-25T14:24:45.076Z,7.70
2023-01-25T14:27:50.988Z,7.03
2023-01-25T14:30:54.233Z,7.00
2023-01-25T14:33:57.804Z,7.90
2023-01-25T14:37:06.724Z,8.30
2023-01-25T14:40:12.375Z,7.70
2023-01-25T14:43:16.597Z,8.10
2023-01-25T14:46:27.913Z,7.60
2023-01-25T14:49:29.980Z,7.23
2023-01-25T14:52:31.324Z,7.63
2023-01-25T14:55:34.005Z,7.78
2023-01-25T14:58:35.468Z,8.18
2023-01-25T15:01:40.840Z,7.82
2023-01-25T15:04:55.623Z,8.20
2023-01-25T15:07:59.573Z,7.90
2023-01-25T15:11:33.932Z,6.72
2023-01-25T15:14:47.792Z,6.97
2023-01-25T15:17:50.759Z,7.43
2023-01-25T15:20:52.960Z,7.13
2023-01-25T15:23:57.076Z,7.73
2023-01-25T15:26:58.411Z,7.38
2023-01-25T15:30:00.968Z,8.13
2023-01-25T15:33:02.280Z,7.25
2023-01-25T15:39:23.996Z,6.47
2023-01-25T15:42:26.558Z,6.75
2023-01-25T15:45:27.890Z,6.93
2023-01-25T15:48:32.249Z,6.90
2023-01-25T15:51:35.989Z,6.53
2023-01-25T15:54:37.366Z,7.20
2023-01-25T15:57:40.030Z,7.53
2023-01-25T16:00:41.483Z,6.93
2023-01-25T16:03:44.108Z,7.03
2023-01-25T16:06:49.328Z,6.47
2023-01-25T16:09:51.917Z,6.40
2023-01-25T16:12:53.316Z,6.40
2023-01-25T16:15:56.414Z,7.25
2023-01-25T16:18:57.784Z,7.20
2023-01-25T16:22:00.998Z,6.33
2023-01-25T16:25:03.742Z,6.73
2023-01-25T16:28:06.486Z,6.53
2023-01-25T16:31:16.757Z,7.13
2023-01-25T16:34:25.247Z,7.07
2023-01-25T16:37:27.193Z,8.43
2023-01-25T16:40:36.285Z,8.57
2023-01-25T16:43:42.946Z,6.68
2023-01-25T16:46:44.762Z,9.30
2023-01-25T16:49:48.390Z,8.77
2023-01-25T16:52:50.771Z,8.00
2023-01-25T16:55:53.653Z,8.55
2023-01-25T16:58:57.089Z,8.60
2023-01-25T17:01:59.590Z,16.90
2023-01-25T17:05:00.930Z,12.87
2023-01-25T17:08:05.082Z,8.33
2023-01-25T17:11:06.903Z,7.65
2023-01-25T17:14:13.528Z,6.85
2023-01-25T17:17:14.904Z,7.78
2023-01-25T17:20:17.293Z,6.83
2023-01-25T17:23:19.316Z,7.60
2023-01-25T17:26:22.986Z,7.70
2023-01-25T17:29:26.144Z,6.97
2023-01-25T17:32:28.022Z,6.43
2023-01-25T17:35:31.127Z,6.90
2023-01-25T17:38:33.341Z,6.07
2023-01-25T17:41:36.118Z,6.65
2023-01-25T17:44:37.588Z,6.18
2023-01-25T17:47:40.113Z,7.35
2023-01-25T17:50:42.679Z,6.87
2023-01-25T17:53:44.968Z,6.97
2023-01-25T17:56:47.790Z,6.20
2023-01-25T17:59:49.446Z,5.85
2023-01-25T18:06:16.016Z,7.07
2023-01-25T18:09:19.562Z,6.00
2023-01-25T18:12:20.909Z,5.90
2023-01-25T18:15:22.932Z,6.85
2023-01-25T18:18:25.614Z,6.20
2023-01-25T18:24:50.927Z,6.00
2023-01-25T18:27:54.382Z,6.75
2023-01-25T18:31:00.146Z,6.72
2023-01-25T18:37:24.875Z,7.20
2023-01-25T18:40:30.335Z,11.47
2023-01-25T18:43:32.752Z,10.60
2023-01-25T18:46:35.420Z,7.80
2023-01-25T18:49:37.999Z,6.00
2023-01-25T18:52:39.355Z,5.97
2023-01-25T18:55:43.091Z,5.90
2023-01-25T18:58:46.295Z,5.90
2023-01-25T19:01:47.708Z,6.30
2023-01-25T19:04:49.581Z,5.60
2023-01-25T19:07:52.110Z,5.87
2023-01-25T19:10:59.527Z,5.43
2023-01-25T19:14:02.367Z,4.80
2023-01-25T19:17:03.797Z,4.55
2023-01-25T19:20:07.303Z,5.25
2023-01-25T19:23:08.565Z,4.97
2023-01-25T19:26:14.185Z,5.20
2023-01-25T19:29:15.867Z,4.45
2023-01-25T19:32:17.427Z,4.63
2023-01-25T19:35:19.047Z,4.57
2023-01-25T19:38:20.423Z,4.50
2023-01-25T19:41:24.942Z,4.67
2023-01-25T19:44:26.517Z,4.57
2023-01-25T19:47:27.774Z,4.68
2023-01-25T19:50:30.071Z,4.40
2023-01-25T19:53:31.385Z,5.85
2023-01-25T19:56:38.767Z,5.63
2023-01-25T19:59:40.098Z,4.78
2023-01-25T20:02:42.723Z,5.65
2023-01-25T20:05:44.043Z,5.23
2023-01-25T20:08:49.257Z,5.38
2023-01-25T20:11:51.242Z,5.78
2023-01-25T20:14:53.237Z,5.00
2023-01-25T20:17:56.627Z,5.82
2023-01-25T20:20:59.821Z,5.17
2023-01-25T20:24:04.041Z,4.28
2023-01-25T20:27:06.670Z,5.47
2023-01-25T20:30:08.984Z,5.18
2023-01-25T20:33:10.903Z,5.10
2023-01-25T20:36:13.405Z,5.23
2023-01-25T20:39:17.804Z,5.28
2023-01-25T20:42:19.792Z,5.60
2023-01-25T20:45:21.057Z,5.25
2023-01-25T20:48:22.492Z,5.25
2023-01-25T20:51:23.832Z,5.30
2023-01-25T20:54:25.442Z,4.65
2023-01-25T20:57:27.491Z,4.90
2023-01-25T21:00:28.797Z,4.90
2023-01-25T21:06:54.549Z,5.13
2023-01-25T21:09:55.910Z,5.28
2023-01-25T21:16:20.615Z,5.07
2023-01-25T21:19:22.152Z,5.70
2023-01-25T21:22:25.431Z,5.68
2023-01-25T21:25:26.754Z,5.67
2023-01-25T21:31:52.602Z,5.85
2023-01-25T21:34:55.198Z,6.00
2023-01-25T21:37:57.747Z,5.47
2023-01-25T21:41:00.440Z,5.37
2023-01-25T21:44:22.427Z,5.43
2023-01-25T21:47:30.517Z,5.75
2023-01-25T21:54:11.613Z,6.43
2023-01-25T21:57:14.141Z,6.50
2023-01-25T22:03:38.139Z,5.22
2023-01-25T22:06:40.263Z,6.22
2023-01-25T22:13:03.600Z,5.93
2023-01-25T22:16:08.066Z,5.03
2023-01-25T22:19:10.710Z,5.63
2023-01-25T22:22:13.494Z,5.15
2023-01-25T22:25:16.240Z,5.20
2023-01-25T22:28:19.345Z,5.90
2023-01-25T22:31:24.403Z,5.85
2023-01-25T22:34:27.755Z,5.47
2023-01-25T22:37:28.992Z,5.50
2023-01-25T22:40:31.820Z,5.43
2023-01-25T22:43:33.529Z,5.50
2023-01-25T22:46:37.543Z,5.05
2023-01-25T22:49:40.192Z,6.25
2023-01-25T22:52:41.491Z,5.88
2023-01-25T22:55:44.173Z,5.70
2023-01-25T22:58:46.745Z,5.27
2023-01-25T23:01:50.307Z,5.95
2023-01-25T23:04:51.681Z,6.38
2023-01-25T23:07:54.819Z,6.28
2023-01-25T23:14:40.321Z,5.97
2023-01-25T23:18:01.537Z,6.07
2023-01-25T23:21:05.115Z,6.40
2023-01-25T23:24:07.289Z,5.07
2023-01-25T23:27:09.885Z,5.60
2023-01-25T23:30:12.095Z,5.73
2023-01-25T23:33:14.225Z,6.28
2023-01-25T23:36:18.460Z,5.93
2023-01-25T23:39:20.406Z,6.03
2023-01-25T23:42:22.939Z,6.03
2023-01-25T23:45:24.282Z,6.67
2023-01-25T23:51:49.078Z,6.00
2023-01-25T23:54:50.352Z,6.28
2023-01-25T23:57:54.275Z,5.73
